createdAt,value
2022-12-03T00:01:20.405Z,3.24
2022-12-03T00:04:22.918Z,3.21
2022-12-03T00:07:25.223Z,2.98
2022-12-03T00:10:27.830Z,3.09
2022-12-03T00:13:30.134Z,2.96
2022-12-03T00:16:32.710Z,3.05
2022-12-03T00:19:34.977Z,3.03
2022-12-03T00:22:39.606Z,3.10
2022-12-03T00:25:41.829Z,3.08
2022-12-03T00:28:45.549Z,3.17
2022-12-03T00:31:48.807Z,3.11
2022-12-03T00:34:51.691Z,3.13
2022-12-03T00:37:54.925Z,3.22
2022-12-03T00:40:57.644Z,3.22
2022-12-03T00:43:59.864Z,3.26
2022-12-03T00:47:02.606Z,3.26
2022-12-03T00:50:06.170Z,3.20
2022-12-03T00:53:08.721Z,3.33
2022-12-03T00:56:11.108Z,3.28
2022-12-03T00:59:13.734Z,3.17
2022-12-03T01:02:16.254Z,3.24
2022-12-03T01:05:20.023Z,3.27
2022-12-03T01:08:22.344Z,3.17
2022-12-03T01:11:41.231Z,3.09
2022-12-03T01:14:44.589Z,3.15
2022-12-03T01:17:47.150Z,3.11
2022-12-03T01:20:49.440Z,3.18
2022-12-03T01:23:52.040Z,3.11
2022-12-03T01:26:56.041Z,3.30
2022-12-03T01:29:58.618Z,3.29
2022-12-03T01:33:00.851Z,3.30
2022-12-03T01:36:03.560Z,3.27
2022-12-03T01:39:05.856Z,3.30
2022-12-03T01:42:11.900Z,3.03
2022-12-03T01:45:22.695Z,3.18
2022-12-03T01:48:25.325Z,3.13
2022-12-03T01:51:27.606Z,3.20
2022-12-03T01:54:42.272Z,3.06
2022-12-03T01:57:51.559Z,3.02
2022-12-03T02:00:54.688Z,3.03
2022-12-03T02:03:57.874Z,3.14
2022-12-03T02:07:20.583Z,3.18
2022-12-03T02:10:30.160Z,3.14
2022-12-03T02:13:33.136Z,3.22
2022-12-03T02:16:37.603Z,3.12
2022-12-03T02:19:40.315Z,3.21
2022-12-03T02:22:57.951Z,3.23
2022-12-03T02:26:00.715Z,3.23
2022-12-03T02:29:03.938Z,3.17
2022-12-03T02:32:06.595Z,3.04
2022-12-03T02:35:21.318Z,3.14
2022-12-03T02:38:27.092Z,3.23
2022-12-03T02:41:48.267Z,3.16
2022-12-03T02:44:51.811Z,3.09
2022-12-03T02:48:02.648Z,3.23
2022-12-03T02:51:09.086Z,3.19
2022-12-03T02:54:11.470Z,3.14
2022-12-03T02:57:16.336Z,3.23
2022-12-03T03:00:20.182Z,3.05
2022-12-03T03:03:24.658Z,3.16
2022-12-03T03:06:27.089Z,3.12
2022-12-03T03:09:29.798Z,3.13
2022-12-03T03:12:36.182Z,3.23
2022-12-03T03:15:42.503Z,3.09
2022-12-03T03:18:44.969Z,3.27
2022-12-03T03:21:47.569Z,3.24
2022-12-03T03:24:49.835Z,3.28
2022-12-03T03:27:52.411Z,3.28
2022-12-03T03:30:55.396Z,3.23
2022-12-03T03:33:58.185Z,3.17
2022-12-03T03:37:00.476Z,3.28
2022-12-03T03:40:03.611Z,3.20
2022-12-03T03:43:06.799Z,3.29
2022-12-03T03:46:10.663Z,3.28
2022-12-03T03:49:14.054Z,3.33
2022-12-03T03:52:18.492Z,3.27
2022-12-03T03:55:20.936Z,3.26
2022-12-03T03:58:23.508Z,3.24
2022-12-03T04:01:26.947Z,3.21
2022-12-03T04:04:33.338Z,3.24
2022-12-03T04:07:35.889Z,3.33
2022-12-03T04:10:57.113Z,3.31
2022-12-03T04:13:59.343Z,3.35
2022-12-03T04:17:01.962Z,3.17
2022-12-03T04:20:04.843Z,3.30
2022-12-03T04:23:08.401Z,3.21
2022-12-03T04:26:29.258Z,3.23
2022-12-03T04:29:31.798Z,3.19
2022-12-03T04:32:52.498Z,3.31
2022-12-03T04:35:55.160Z,3.41
2022-12-03T04:38:57.522Z,3.39
2022-12-03T04:42:00.139Z,3.17
2022-12-03T04:45:02.427Z,3.34
2022-12-03T04:48:05.174Z,3.23
2022-12-03T04:51:07.422Z,3.34
2022-12-03T04:54:09.977Z,3.28
2022-12-03T04:57:12.754Z,3.36
2022-12-03T05:00:15.908Z,3.38
2022-12-03T05:03:18.254Z,3.32
2022-12-03T05:06:20.796Z,3.28
2022-12-03T05:09:23.161Z,3.08
2022-12-03T05:12:25.680Z,3.18
2022-12-03T05:15:27.913Z,3.20
2022-12-03T05:18:30.454Z,3.23
2022-12-03T05:21:33.052Z,3.16
2022-12-03T05:24:35.579Z,3.03
2022-12-03T05:27:37.850Z,3.09
2022-12-03T05:30:40.548Z,3.03
2022-12-03T05:33:44.522Z,3.06
2022-12-03T05:36:47.307Z,3.02
2022-12-03T05:39:49.573Z,2.99
2022-12-03T05:42:55.002Z,2.90
2022-12-03T05:45:57.313Z,3.15
2022-12-03T05:49:05.359Z,3.17
2022-12-03T05:52:07.594Z,3.14
2022-12-03T05:55:11.569Z,3.15
2022-12-03T05:58:14.004Z,3.13
2022-12-03T06:01:16.647Z,3.32
2022-12-03T06:04:19.137Z,3.28
2022-12-03T06:07:21.400Z,3.25
2022-12-03T06:10:25.061Z,3.21
2022-12-03T06:13:27.326Z,3.32
2022-12-03T06:16:29.936Z,3.17
2022-12-03T06:19:33.018Z,3.29
2022-12-03T06:22:35.542Z,3.34
2022-12-03T06:25:37.832Z,3.35
2022-12-03T06:28:45.587Z,3.24
2022-12-03T06:31:47.835Z,3.40
2022-12-03T06:34:53.363Z,3.38
2022-12-03T06:37:55.912Z,3.41
2022-12-03T06:40:58.442Z,3.40
2022-12-03T06:44:00.724Z,3.40
2022-12-03T06:47:03.331Z,3.43
2022-12-03T06:50:07.649Z,3.29
2022-12-03T06:53:10.165Z,3.47
2022-12-03T06:56:12.421Z,3.38
2022-12-03T06:59:14.957Z,3.34
2022-12-03T07:02:17.233Z,3.37
2022-12-03T07:05:20.038Z,3.25
2022-12-03T07:08:22.258Z,3.33
2022-12-03T07:11:39.942Z,3.37
2022-12-03T07:14:42.226Z,3.42
2022-12-03T07:17:44.757Z,3.54
2022-12-03T07:20:47.234Z,3.51
2022-12-03T07:23:49.842Z,3.47
2022-12-03T07:26:52.068Z,3.41
2022-12-03T07:29:54.623Z,3.51
2022-12-03T07:32:56.921Z,3.52
2022-12-03T07:35:59.461Z,3.44
2022-12-03T07:39:01.679Z,3.63
2022-12-03T07:42:04.321Z,3.67
2022-12-03T07:45:07.235Z,3.70
2022-12-03T07:48:09.836Z,3.81
2022-12-03T07:51:15.293Z,3.79
2022-12-03T07:54:18.155Z,3.73
2022-12-03T07:57:20.878Z,3.90
2022-12-03T08:00:23.570Z,3.74
2022-12-03T08:03:26.244Z,3.81
2022-12-03T08:06:28.508Z,3.87
2022-12-03T08:09:31.556Z,3.79
2022-12-03T08:12:40.611Z,3.97
2022-12-03T08:15:45.196Z,4.00
2022-12-03T08:18:49.343Z,3.91
2022-12-03T08:21:55.281Z,3.93
2022-12-03T08:25:02.108Z,4.06
2022-12-03T08:28:22.982Z,4.15
2022-12-03T08:31:32.866Z,4.05
2022-12-03T08:34:40.713Z,4.03
2022-12-03T08:37:43.042Z,4.01
2022-12-03T08:40:48.155Z,4.30
2022-12-03T08:43:50.379Z,4.12
2022-12-03T08:47:26.352Z,4.10
2022-12-03T08:50:40.186Z,4.23
2022-12-03T08:54:01.553Z,4.34
2022-12-03T08:57:28.991Z,4.28
2022-12-03T09:00:32.466Z,4.41
2022-12-03T09:03:34.946Z,4.37
2022-12-03T09:06:37.485Z,4.48
2022-12-03T09:09:40.258Z,4.50
2022-12-03T09:12:42.889Z,4.61
2022-12-03T09:15:45.166Z,4.72
2022-12-03T09:18:47.735Z,4.81
2022-12-03T09:21:50.172Z,4.69
2022-12-03T09:24:52.987Z,4.67
2022-12-03T09:27:55.426Z,4.87
2022-12-03T09:30:57.886Z,4.92
2022-12-03T09:34:02.540Z,5.00
2022-12-03T09:37:05.173Z,5.03
2022-12-03T09:40:08.806Z,4.98
2022-12-03T09:43:12.527Z,4.99
2022-12-03T09:46:15.037Z,5.13
2022-12-03T09:49:19.903Z,5.14
2022-12-03T09:52:28.774Z,5.13
2022-12-03T09:55:32.239Z,5.07
2022-12-03T09:58:35.040Z,5.31
2022-12-03T10:01:37.823Z,5.35
2022-12-03T10:04:40.493Z,5.59
2022-12-03T10:07:42.874Z,5.50
2022-12-03T10:10:45.549Z,5.70
2022-12-03T10:13:48.299Z,5.93
2022-12-03T10:16:51.152Z,5.77
2022-12-03T10:19:53.809Z,5.77
2022-12-03T10:22:56.534Z,5.94
2022-12-03T10:26:02.978Z,6.12
2022-12-03T10:29:13.153Z,6.13
2022-12-03T10:32:15.453Z,6.12
2022-12-03T10:35:21.745Z,6.09
2022-12-03T10:38:24.091Z,6.20
2022-12-03T10:41:29.199Z,6.43
2022-12-03T10:44:31.562Z,6.66
2022-12-03T10:47:34.240Z,6.83
2022-12-03T10:50:37.708Z,6.68
2022-12-03T10:53:41.132Z,6.88
2022-12-03T10:56:44.056Z,6.84
2022-12-03T10:59:46.600Z,6.77
2022-12-03T11:02:54.811Z,6.89
2022-12-03T11:06:00.454Z,6.98
2022-12-03T11:09:08.808Z,6.95
2022-12-03T11:12:17.572Z,6.94
2022-12-03T11:15:44.411Z,6.90
2022-12-03T11:18:49.731Z,6.95
2022-12-03T11:22:05.400Z,7.14
2022-12-03T11:25:44.701Z,7.17
2022-12-03T11:28:46.994Z,7.22
2022-12-03T11:31:49.684Z,7.35
2022-12-03T11:34:52.350Z,7.52
2022-12-03T11:37:55.207Z,7.59
2022-12-03T11:41:34.225Z,7.49
2022-12-03T11:44:36.921Z,7.60
2022-12-03T11:47:59.377Z,7.49
2022-12-03T11:51:02.156Z,7.62
2022-12-03T11:54:04.678Z,7.67
2022-12-03T11:57:26.435Z,7.54
2022-12-03T12:00:29.280Z,7.56
2022-12-03T12:03:41.831Z,7.44
2022-12-03T12:06:48.689Z,7.50
2022-12-03T12:09:55.882Z,7.48
2022-12-03T12:12:58.635Z,7.58
2022-12-03T12:16:04.221Z,7.60
2022-12-03T12:19:33.009Z,7.58
2022-12-03T12:22:35.653Z,7.70
2022-12-03T12:25:40.364Z,7.66
2022-12-03T12:28:42.959Z,7.74
2022-12-03T12:31:49.515Z,7.71
2022-12-03T12:34:59.787Z,7.64
2022-12-03T12:38:08.693Z,7.49
2022-12-03T12:41:11.487Z,7.43
2022-12-03T12:44:14.431Z,7.45
2022-12-03T12:47:17.030Z,7.25
2022-12-03T12:50:20.120Z,7.25
2022-12-03T12:53:24.840Z,7.16
2022-12-03T12:56:32.627Z,7.19
2022-12-03T12:59:35.523Z,7.17
2022-12-03T13:03:00.318Z,7.12
2022-12-03T13:06:03.688Z,7.08
2022-12-03T13:09:17.909Z,7.20
2022-12-03T13:12:23.282Z,7.20
2022-12-03T13:15:38.933Z,7.06
2022-12-03T13:18:44.995Z,7.03
2022-12-03T13:21:47.252Z,7.12
2022-12-03T13:24:51.981Z,7.04
2022-12-03T13:27:54.216Z,7.09
2022-12-03T13:31:12.747Z,6.91
2022-12-03T13:34:20.802Z,6.86
2022-12-03T13:37:26.893Z,6.91
2022-12-03T13:40:31.640Z,6.81
2022-12-03T13:43:38.752Z,6.92
2022-12-03T13:46:46.693Z,6.90
2022-12-03T13:50:00.826Z,6.90
2022-12-03T13:53:23.324Z,6.90
2022-12-03T13:56:25.874Z,6.89
2022-12-03T13:59:28.170Z,6.92
2022-12-03T14:02:30.679Z,6.87
2022-12-03T14:05:33.368Z,6.95
2022-12-03T14:08:35.650Z,6.99
2022-12-03T14:11:56.920Z,6.95
2022-12-03T14:15:04.069Z,6.93
2022-12-03T14:18:06.723Z,6.85
2022-12-03T14:21:09.014Z,6.87
2022-12-03T14:24:11.641Z,6.87
2022-12-03T14:27:13.922Z,6.85
2022-12-03T14:30:16.712Z,6.82
2022-12-03T14:33:18.937Z,6.85
2022-12-03T14:36:21.574Z,6.77
2022-12-03T14:39:23.984Z,6.74
2022-12-03T14:42:29.460Z,6.64
2022-12-03T14:45:32.008Z,6.74
2022-12-03T14:48:34.590Z,6.65
2022-12-03T14:51:36.845Z,6.70
2022-12-03T14:54:42.638Z,6.61
2022-12-03T14:57:45.355Z,6.58
2022-12-03T15:00:47.979Z,6.60
2022-12-03T15:03:50.256Z,6.58
2022-12-03T15:06:52.809Z,6.54
2022-12-03T15:09:55.441Z,6.56
2022-12-03T15:12:58.271Z,6.51
2022-12-03T15:16:00.550Z,6.49
2022-12-03T15:19:03.166Z,6.50
2022-12-03T15:22:05.419Z,6.44
2022-12-03T15:25:08.482Z,6.48
2022-12-03T15:28:10.810Z,6.34
2022-12-03T15:31:13.605Z,6.45
2022-12-03T15:34:21.808Z,6.27
2022-12-03T15:37:27.690Z,6.33
2022-12-03T15:40:29.900Z,6.22
2022-12-03T15:43:32.440Z,6.23
2022-12-03T15:46:34.827Z,6.29
2022-12-03T15:49:37.410Z,6.25
2022-12-03T15:52:40.057Z,6.21
2022-12-03T15:55:42.626Z,6.23
2022-12-03T15:58:44.923Z,6.19
2022-12-03T16:01:47.542Z,6.06
2022-12-03T16:04:50.143Z,6.17
2022-12-03T16:07:52.662Z,6.11
2022-12-03T16:10:55.353Z,6.09
2022-12-03T16:13:57.637Z,6.12
2022-12-03T16:17:00.246Z,6.09
2022-12-03T16:20:02.826Z,6.05
2022-12-03T16:23:05.594Z,6.02
2022-12-03T16:26:07.855Z,5.92
2022-12-03T16:29:10.436Z,5.90
2022-12-03T16:32:12.917Z,5.98
2022-12-03T16:35:15.598Z,5.92
2022-12-03T16:38:17.885Z,5.97
2022-12-03T16:41:22.393Z,5.92
2022-12-03T16:44:32.706Z,5.79
2022-12-03T16:47:35.496Z,5.88
2022-12-03T16:50:38.134Z,5.89
2022-12-03T16:53:40.814Z,5.75
2022-12-03T16:56:43.062Z,5.86
2022-12-03T16:59:45.658Z,5.76
2022-12-03T17:02:48.675Z,5.85
2022-12-03T17:05:51.471Z,5.83
2022-12-03T17:08:53.781Z,5.73
2022-12-03T17:11:56.318Z,5.73
2022-12-03T17:14:58.596Z,5.81
2022-12-03T17:18:03.488Z,5.86
2022-12-03T17:21:06.648Z,5.73
2022-12-03T17:24:09.326Z,5.83
2022-12-03T17:27:12.844Z,5.82
2022-12-03T17:30:15.792Z,5.70
2022-12-03T17:33:18.019Z,5.77
2022-12-03T17:36:20.536Z,5.79
2022-12-03T17:39:22.974Z,5.79
2022-12-03T17:42:25.908Z,5.74
2022-12-03T17:45:28.259Z,5.76
2022-12-03T17:48:31.407Z,5.77
2022-12-03T17:51:33.903Z,5.65
2022-12-03T17:55:01.753Z,5.73
2022-12-03T17:57:59.831Z,5.67
2022-12-03T18:01:03.371Z,5.49
2022-12-03T18:04:06.123Z,5.60
2022-12-03T18:07:08.774Z,5.57
2022-12-03T18:10:11.518Z,5.66
2022-12-03T18:13:14.083Z,6.00
2022-12-03T18:16:16.842Z,5.81
2022-12-03T18:19:19.195Z,5.82
2022-12-03T18:22:21.843Z,5.68
2022-12-03T18:25:25.923Z,5.77
2022-12-03T18:28:30.612Z,5.71
2022-12-03T18:31:33.074Z,5.69
2022-12-03T18:34:35.584Z,5.47
2022-12-03T18:37:38.487Z,5.43
2022-12-03T18:40:43.970Z,5.22
2022-12-03T18:43:46.604Z,5.31
2022-12-03T18:46:53.930Z,5.20
2022-12-03T18:49:57.515Z,5.29
2022-12-03T18:53:00.407Z,5.30
2022-12-03T18:56:03.135Z,5.24
2022-12-03T18:59:07.398Z,5.27
2022-12-03T19:02:46.099Z,5.14
2022-12-03T19:05:42.174Z,5.18
2022-12-03T19:08:45.137Z,5.16
2022-12-03T19:11:48.011Z,5.25
2022-12-03T19:14:51.107Z,5.19
2022-12-03T19:17:53.748Z,5.31
2022-12-03T19:20:56.100Z,5.27
2022-12-03T19:24:23.298Z,5.19
2022-12-03T19:27:21.218Z,5.18
2022-12-03T19:30:23.960Z,5.21
2022-12-03T19:33:28.674Z,5.23
2022-12-03T19:36:31.736Z,5.10
2022-12-03T19:39:34.093Z,5.22
2022-12-03T19:42:36.658Z,5.23
2022-12-03T19:45:38.976Z,5.23
2022-12-03T19:48:41.763Z,5.07
2022-12-03T19:51:44.341Z,5.11
2022-12-03T19:54:46.921Z,5.22
2022-12-03T19:57:49.215Z,5.24
2022-12-03T20:00:51.755Z,5.16
2022-12-03T20:03:57.727Z,5.19
2022-12-03T20:06:59.997Z,5.13
2022-12-03T20:10:02.747Z,5.17
2022-12-03T20:13:05.398Z,5.21
2022-12-03T20:16:12.570Z,5.19
2022-12-03T20:19:17.079Z,5.16
2022-12-03T20:22:19.635Z,5.17
2022-12-03T20:25:21.916Z,5.17
2022-12-03T20:28:24.615Z,5.22
2022-12-03T20:31:29.594Z,5.21
2022-12-03T20:34:34.130Z,5.06
2022-12-03T20:37:36.415Z,5.15
2022-12-03T20:40:39.119Z,5.16
2022-12-03T20:43:42.311Z,5.15
2022-12-03T20:46:44.932Z,5.17
2022-12-03T20:49:47.251Z,5.17
2022-12-03T20:53:16.245Z,5.14
2022-12-03T20:56:18.609Z,5.13
2022-12-03T20:59:21.326Z,5.14
2022-12-03T21:02:23.692Z,5.16
2022-12-03T21:05:27.040Z,5.04
2022-12-03T21:08:41.115Z,5.21
2022-12-03T21:11:44.452Z,5.24
2022-12-03T21:14:46.839Z,5.20
2022-12-03T21:17:49.471Z,5.29
2022-12-03T21:20:51.762Z,5.20
2022-12-03T21:23:54.810Z,5.30
2022-12-03T21:26:57.985Z,5.19
2022-12-03T21:30:00.562Z,5.24
2022-12-03T21:33:02.807Z,5.33
2022-12-03T21:36:06.861Z,5.33
2022-12-03T21:39:09.198Z,5.31
2022-12-03T21:42:19.393Z,5.23
2022-12-03T21:45:33.955Z,5.31
2022-12-03T21:48:36.752Z,5.19
2022-12-03T21:51:39.018Z,5.24
2022-12-03T21:54:41.665Z,5.31
2022-12-03T21:57:43.970Z,5.17
2022-12-03T22:00:46.545Z,5.24
2022-12-03T22:03:50.195Z,5.18
2022-12-03T22:06:52.481Z,5.25
2022-12-03T22:09:55.287Z,5.32
2022-12-03T22:12:57.796Z,5.24
2022-12-03T22:16:04.565Z,5.21
2022-12-03T22:19:06.803Z,5.25
2022-12-03T22:22:09.378Z,5.09
2022-12-03T22:25:11.777Z,5.15
2022-12-03T22:28:14.290Z,5.06
2022-12-03T22:31:18.399Z,5.06
2022-12-03T22:34:21.058Z,5.03
2022-12-03T22:37:23.964Z,5.15
2022-12-03T22:40:26.472Z,5.16
2022-12-03T22:43:28.818Z,5.17
2022-12-03T22:46:31.503Z,5.04
2022-12-03T22:49:33.826Z,5.15
2022-12-03T22:52:36.348Z,5.06
2022-12-03T22:55:39.112Z,5.15
2022-12-03T22:58:41.764Z,5.17
2022-12-03T23:01:44.414Z,5.20
2022-12-03T23:04:47.015Z,5.15
2022-12-03T23:07:50.673Z,5.26
2022-12-03T23:10:53.283Z,5.31
2022-12-03T23:13:55.575Z,5.34
2022-12-03T23:16:58.063Z,5.28
2022-12-03T23:20:00.339Z,5.32
2022-12-03T23:23:02.865Z,5.23
2022-12-03T23:26:07.847Z,5.21
2022-12-03T23:29:10.457Z,5.25
2022-12-03T23:32:12.738Z,5.23
2022-12-03T23:35:15.240Z,5.25
2022-12-03T23:38:17.457Z,5.32
2022-12-03T23:41:22.245Z,5.21
2022-12-03T23:44:24.995Z,5.16
2022-12-03T23:47:27.967Z,5.26
2022-12-03T23:50:31.032Z,5.15
2022-12-03T23:53:35.142Z,5.28
2022-12-03T23:56:37.581Z,5.25
2022-12-03T23:59:42.125Z,5.24
